PWSweather.com
Personal Weather Stations
Station Observations
KNCCHINA3
Red Tractor Trail, China Grove, NC 28023

Red Tractor TrailChina Grove, NC 28023

Lat: 35.59751, Lon: -80.60201

Elevation: 800

Station Type: Oregon Scientific WMR 968

http://www.joesweathergarage.com

Latest ConditionsUpdated 7:05:53 AM EDT Monday, Apr 24, 2017
Currently Today's Max Today's Min Today's Average
Temperature 49.8°F9.9°C 86.2°F30.1°C 49.8°F9.9°C 54.8°F12.7°C
Dew Point 49.8°F9.9°C 77.7°F25.4°C 49.8°F9.9°C 53.7°F12.1°C
Winds 5.6 mph ENE9.0 kmh ENE 12.2 mph ENE19.6 kmh ENE - 6.4 mph 10.3 kmh
Wind Gusts 17.0 mph27.4 kmh 21.4 mph34.4 kmh - -
Humidity 100% 100% 75% 97%
Pressure 29.88 in1011.9 mb 30.00 in1015.9 mb 29.85 in1010.8 mb -
Precipitation - 2.19 in55.6 mm - -
Hour Temp Dew Point Humidity Winds Wind Gusts Pressure Precip Precip Rate Daily Precip Total
07:05 AM 49.8°F9.9°C 49.8°F9.9°C 100% 5.6 mph ENE9.0 kmh ENE 17.0 mph27.4 kmh 29.88 in1011.9 mb 0.00 in0.0 mm 0.00 in0.0 mm 2.19 in55.6 mm
07:00 AM 49.8°F9.9°C 49.8°F9.9°C 100% 7.8 mph E12.6 kmh E 20.6 mph33.2 kmh 29.88 in1011.9 mb 0.00 in0.0 mm 0.00 in0.0 mm 2.19 in55.6 mm
06:59 AM 86.2°F30.1°C 77.5°F25.3°C 75% 1.8 mph ENE2.9 kmh ENE 1.8 mph2.9 kmh 29.97 in1014.9 mb 0.00 in0.0 mm 0.00 in0.0 mm 3.49 in88.6 mm
06:58 AM 86.0°F30.0°C 77.7°F25.4°C 76% 1.8 mph ENE2.9 kmh ENE 2.2 mph3.5 kmh 29.97 in1014.9 mb 0.00 in0.0 mm 0.00 in0.0 mm 3.49 in88.6 mm
06:54 AM 49.8°F9.9°C 49.8°F9.9°C 100% 10.5 mph ENE16.9 kmh ENE 20.6 mph33.2 kmh 29.88 in1011.9 mb 0.00 in0.0 mm 0.00 in0.0 mm 2.19 in55.6 mm
06:49 AM 49.8°F9.9°C 49.8°F9.9°C 100% 7.5 mph ENE12.1 kmh ENE 14.8 mph23.8 kmh 29.88 in1011.9 mb 0.00 in0.0 mm 0.00 in0.0 mm 2.19 in55.6 mm
06:44 AM 49.8°F9.9°C 49.8°F9.9°C 100% 7.8 mph E12.6 kmh E 17.4 mph28.0 kmh 29.88 in1011.9 mb 0.00 in0.0 mm 0.00 in0.0 mm 2.19 in55.6 mm
06:39 AM 49.8°F9.9°C 49.8°F9.9°C 100% 7.8 mph ENE12.6 kmh ENE 17.4 mph28.0 kmh 29.88 in1011.9 mb 0.13 in3.3 mm 0.00 in0.0 mm 2.19 in55.6 mm
06:34 AM 49.8°F9.9°C 49.8°F9.9°C 100% 8.9 mph NE14.3 kmh NE 11.2 mph18.0 kmh 29.88 in1011.9 mb 0.13 in3.3 mm 0.00 in0.0 mm 2.19 in55.6 mm
06:29 AM 49.8°F9.9°C 49.8°F9.9°C 100% 6.0 mph ENE9.7 kmh ENE 10.8 mph17.4 kmh 29.88 in1011.9 mb 0.13 in3.3 mm 0.00 in0.0 mm 2.19 in55.6 mm
06:24 AM 49.8°F9.9°C 49.8°F9.9°C 100% 5.9 mph ENE9.5 kmh ENE 8.0 mph12.9 kmh 29.88 in1011.9 mb 0.13 in3.3 mm 0.00 in0.0 mm 2.19 in55.6 mm
06:19 AM 49.8°F9.9°C 49.8°F9.9°C 100% 5.7 mph ENE9.2 kmh ENE 8.6 mph13.8 kmh 29.88 in1011.9 mb 0.13 in3.3 mm 7.80 in198.1 mm 2.19 in55.6 mm
06:18 AM 85.6°F29.8°C 77.7°F25.4°C 77% 1.8 mph ENE2.9 kmh ENE 4.4 mph7.1 kmh 29.97 in1014.9 mb 0.00 in0.0 mm 0.00 in0.0 mm 3.36 in85.3 mm
06:14 AM 49.8°F9.9°C 49.8°F9.9°C 100% 6.0 mph ENE9.7 kmh ENE 8.6 mph13.8 kmh 29.88 in1011.9 mb 0.13 in3.3 mm 0.00 in0.0 mm 2.19 in55.6 mm
06:09 AM 49.8°F9.9°C 49.8°F9.9°C 100% 4.4 mph NE7.1 kmh NE 8.6 mph13.8 kmh 29.91 in1012.9 mb 0.13 in3.3 mm 0.60 in15.2 mm 2.19 in55.6 mm
06:04 AM 49.8°F9.9°C 49.8°F9.9°C 100% 7.0 mph NE11.3 kmh NE 12.6 mph20.3 kmh 29.91 in1012.9 mb 0.08 in2.0 mm 0.04 in1.0 mm 2.15 in54.6 mm
05:59 AM 49.8°F9.9°C 49.8°F9.9°C 100% 8.3 mph NE13.4 kmh NE 12.6 mph20.3 kmh 29.91 in1012.9 mb 0.04 in1.0 mm 0.00 in0.0 mm 2.11 in53.6 mm
05:51 AM 49.8°F9.9°C 49.8°F9.9°C 100% 6.8 mph ENE10.9 kmh ENE 11.6 mph18.7 kmh 29.91 in1012.9 mb 0.04 in1.0 mm 0.00 in0.0 mm 2.11 in53.6 mm
05:46 AM 49.8°F9.9°C 49.8°F9.9°C 100% 2.7 mph E4.3 kmh E 11.6 mph18.7 kmh 29.91 in1012.9 mb 0.04 in1.0 mm 0.00 in0.0 mm 2.11 in53.6 mm
05:41 AM 49.8°F9.9°C 49.8°F9.9°C 100% 9.3 mph NE15.0 kmh NE 14.4 mph23.2 kmh 29.91 in1012.9 mb 0.04 in1.0 mm 0.00 in0.0 mm 2.07 in52.6 mm
05:36 AM 49.8°F9.9°C 49.8°F9.9°C 100% 9.3 mph NE15.0 kmh NE 14.8 mph23.8 kmh 29.88 in1011.9 mb 0.04 in1.0 mm 0.00 in0.0 mm 2.07 in52.6 mm
05:29 AM 49.8°F9.9°C 49.8°F9.9°C 100% 6.0 mph NE9.7 kmh NE 15.6 mph25.1 kmh 29.88 in1011.9 mb 0.04 in1.0 mm 0.00 in0.0 mm 2.07 in52.6 mm
05:24 AM 49.8°F9.9°C 49.8°F9.9°C 100% 8.5 mph NE13.7 kmh NE 15.6 mph25.1 kmh 29.88 in1011.9 mb 0.04 in1.0 mm 0.48 in12.2 mm 2.07 in52.6 mm
05:19 AM 49.8°F9.9°C 49.8°F9.9°C 100% 5.6 mph E9.0 kmh E 15.6 mph25.1 kmh 29.88 in1011.9 mb 0.00 in0.0 mm 0.00 in0.0 mm 2.03 in51.6 mm
05:14 AM 49.8°F9.9°C 49.8°F9.9°C 100% 10.5 mph NE16.9 kmh NE 15.6 mph25.1 kmh 29.88 in1011.9 mb 0.00 in0.0 mm 0.00 in0.0 mm 2.03 in51.6 mm
05:08 AM 49.8°F9.9°C 49.8°F9.9°C 100% 8.9 mph ENE14.3 kmh ENE 15.6 mph25.1 kmh 29.88 in1011.9 mb 0.00 in0.0 mm 0.00 in0.0 mm 2.03 in51.6 mm
05:03 AM 49.8°F9.9°C 49.8°F9.9°C 100% 8.7 mph ENE14.0 kmh ENE 15.6 mph25.1 kmh 29.88 in1011.9 mb 0.00 in0.0 mm 0.00 in0.0 mm 2.03 in51.6 mm
05:01 AM 85.6°F29.8°C 77.7°F25.4°C 77% Calm Calm 4.4 mph7.1 kmh 29.97 in1014.9 mb 0.00 in0.0 mm 0.00 in0.0 mm 3.23 in82.0 mm
04:58 AM 49.8°F9.9°C 49.8°F9.9°C 100% 10.9 mph ENE17.5 kmh ENE 15.6 mph25.1 kmh 29.88 in1011.9 mb 0.00 in0.0 mm 0.00 in0.0 mm 2.03 in51.6 mm
04:53 AM 49.8°F9.9°C 49.8°F9.9°C 100% 6.4 mph NE10.3 kmh NE 15.6 mph25.1 kmh 29.88 in1011.9 mb 0.00 in0.0 mm 0.00 in0.0 mm 2.03 in51.6 mm
04:48 AM 49.8°F9.9°C 49.8°F9.9°C 100% 7.5 mph ENE12.1 kmh ENE 15.6 mph25.1 kmh 29.88 in1011.9 mb 0.00 in0.0 mm 0.00 in0.0 mm 2.03 in51.6 mm
04:47 AM 85.5°F29.7°C 77.6°F25.3°C 77% Calm Calm 4.4 mph7.1 kmh 29.97 in1014.9 mb 0.00 in0.0 mm 0.00 in0.0 mm 3.23 in82.0 mm
04:43 AM 49.8°F9.9°C 49.8°F9.9°C 100% 11.6 mph NE18.7 kmh NE 20.2 mph32.5 kmh 29.88 in1011.9 mb 0.00 in0.0 mm 0.00 in0.0 mm 2.03 in51.6 mm
04:38 AM 49.8°F9.9°C 49.8°F9.9°C 100% 12.2 mph ENE19.6 kmh ENE 20.2 mph32.5 kmh 29.88 in1011.9 mb 0.17 in4.3 mm 0.00 in0.0 mm 2.03 in51.6 mm
04:33 AM 49.8°F9.9°C 49.8°F9.9°C 100% 9.0 mph ENE14.5 kmh ENE 16.2 mph26.1 kmh 29.88 in1011.9 mb 0.17 in4.3 mm 0.60 in15.2 mm 2.03 in51.6 mm
04:28 AM 49.8°F9.9°C 49.8°F9.9°C 100% 7.1 mph E11.4 kmh E 16.2 mph26.1 kmh 29.88 in1011.9 mb 0.12 in3.0 mm 0.00 in0.0 mm 1.98 in50.3 mm
04:23 AM 49.8°F9.9°C 49.8°F9.9°C 100% 7.3 mph NE11.7 kmh NE 14.8 mph23.8 kmh 29.85 in1010.8 mb 0.12 in3.0 mm 0.34 in8.6 mm 1.98 in50.3 mm
04:16 AM 49.8°F9.9°C 49.8°F9.9°C 100% 9.4 mph ENE15.1 kmh ENE 19.2 mph30.9 kmh 29.85 in1010.8 mb 0.08 in2.0 mm 2.40 in61.0 mm 1.94 in49.3 mm
04:14 AM 85.1°F29.5°C 77.2°F25.1°C 77% Calm Calm 4.4 mph7.1 kmh 29.97 in1014.9 mb 0.00 in0.0 mm 0.00 in0.0 mm 3.06 in77.7 mm
04:11 AM 49.8°F9.9°C 49.8°F9.9°C 100% 8.8 mph ENE14.2 kmh ENE 21.4 mph34.4 kmh 29.85 in1010.8 mb 0.08 in2.0 mm 0.00 in0.0 mm 1.94 in49.3 mm
04:06 AM 49.8°F9.9°C 49.8°F9.9°C 100% 11.7 mph NE18.8 kmh NE 21.4 mph34.4 kmh 29.88 in1011.9 mb 0.08 in2.0 mm 0.00 in0.0 mm 1.94 in49.3 mm
04:01 AM 49.8°F9.9°C 49.8°F9.9°C 100% 11.1 mph ENE17.9 kmh ENE 16.2 mph26.1 kmh 29.88 in1011.9 mb 0.08 in2.0 mm 0.04 in1.0 mm 1.94 in49.3 mm
03:56 AM 49.8°F9.9°C 49.8°F9.9°C 100% 9.4 mph ENE15.1 kmh ENE 15.2 mph24.5 kmh 29.88 in1011.9 mb 0.04 in1.0 mm 0.00 in0.0 mm 1.90 in48.3 mm
03:51 AM 49.8°F9.9°C 49.8°F9.9°C 100% 12.0 mph NE19.3 kmh NE 15.2 mph24.5 kmh 29.88 in1011.9 mb 0.04 in1.0 mm 0.48 in12.2 mm 1.90 in48.3 mm
03:46 AM 49.8°F9.9°C 49.8°F9.9°C 100% 10.6 mph ENE17.1 kmh ENE 15.2 mph24.5 kmh 29.88 in1011.9 mb 0.00 in0.0 mm 0.00 in0.0 mm 1.86 in47.2 mm
03:41 AM 49.8°F9.9°C 49.8°F9.9°C 100% 6.5 mph ENE10.5 kmh ENE 13.0 mph20.9 kmh 29.88 in1011.9 mb 0.54 in13.7 mm 0.48 in12.2 mm 1.86 in47.2 mm
03:36 AM 49.8°F9.9°C 49.8°F9.9°C 100% 7.3 mph ENE11.7 kmh ENE 13.0 mph20.9 kmh 29.91 in1012.9 mb 0.50 in12.7 mm 0.48 in12.2 mm 1.82 in46.2 mm
03:31 AM 49.8°F9.9°C 49.8°F9.9°C 100% 6.9 mph NE11.1 kmh NE 12.0 mph19.3 kmh 29.91 in1012.9 mb 0.46 in11.7 mm 0.60 in15.2 mm 1.78 in45.2 mm
03:26 AM 50.0°F10.0°C 50.0°F10.0°C 100% 7.0 mph NE11.3 kmh NE 12.0 mph19.3 kmh 29.91 in1012.9 mb 0.41 in10.4 mm 0.96 in24.4 mm 1.74 in44.2 mm
03:21 AM 50.0°F10.0°C 50.0°F10.0°C 100% 6.8 mph ENE10.9 kmh ENE 10.8 mph17.4 kmh 29.91 in1012.9 mb 0.33 in8.4 mm 9.90 in251.5 mm 1.65 in41.9 mm
03:19 AM 84.7°F29.3°C 76.9°F24.9°C 77% Calm Calm 4.4 mph7.1 kmh 29.97 in1014.9 mb 0.00 in0.0 mm 0.00 in0.0 mm 2.44 in62.0 mm
03:15 AM 50.0°F10.0°C 50.0°F10.0°C 100% 5.3 mph ENE8.5 kmh ENE 11.2 mph18.0 kmh 29.91 in1012.9 mb 0.29 in7.4 mm 1.08 in27.4 mm 1.61 in40.9 mm
03:10 AM 50.0°F10.0°C 50.0°F10.0°C 100% 7.6 mph NE12.2 kmh NE 12.6 mph20.3 kmh 29.91 in1012.9 mb 0.20 in5.1 mm 0.36 in9.1 mm 1.53 in38.9 mm
03:05 AM 50.0°F10.0°C 50.0°F10.0°C 100% 6.8 mph NE10.9 kmh NE 12.6 mph20.3 kmh 29.91 in1012.9 mb 0.17 in4.3 mm 0.60 in15.2 mm 1.49 in37.8 mm
03:00 AM 50.2°F10.1°C 50.2°F10.1°C 100% 8.1 mph N13.0 kmh N 11.6 mph18.7 kmh 29.91 in1012.9 mb 0.12 in3.0 mm 0.13 in3.3 mm 1.44 in36.6 mm
02:56 AM 84.6°F29.2°C 76.8°F24.9°C 77% 1.8 mph E2.9 kmh E 4.4 mph7.1 kmh 29.97 in1014.9 mb 0.00 in0.0 mm 0.00 in0.0 mm 2.15 in54.6 mm
02:55 AM 50.2°F10.1°C 50.2°F10.1°C 100% 7.7 mph NNE12.4 kmh NNE 11.6 mph18.7 kmh 29.91 in1012.9 mb 0.08 in2.0 mm 0.48 in12.2 mm 1.40 in35.6 mm
02:50 AM 50.2°F10.1°C 50.2°F10.1°C 100% 7.2 mph ENE11.6 kmh ENE 11.6 mph18.7 kmh 29.94 in1013.9 mb 0.04 in1.0 mm 0.48 in12.2 mm 1.36 in34.5 mm
02:45 AM 50.2°F10.1°C 50.2°F10.1°C 100% 5.3 mph NE8.5 kmh NE 11.6 mph18.7 kmh 29.94 in1013.9 mb 0.00 in0.0 mm 0.00 in0.0 mm 1.32 in33.5 mm
02:40 AM 50.2°F10.1°C 50.2°F10.1°C 100% 7.2 mph NNE11.6 kmh NNE 11.6 mph18.7 kmh 29.94 in1013.9 mb 0.50 in12.7 mm 0.48 in12.2 mm 1.28 in32.5 mm
02:35 AM 50.2°F10.1°C 50.2°F10.1°C 100% 3.2 mph ENE5.1 kmh ENE 11.6 mph18.7 kmh 29.91 in1012.9 mb 0.46 in11.7 mm 27.60 in701.0 mm 1.24 in31.5 mm
02:34 AM 84.4°F29.1°C 76.6°F24.8°C 77% 2.0 mph ESE3.2 kmh ESE 4.4 mph7.1 kmh 29.97 in1014.9 mb 0.00 in0.0 mm 0.00 in0.0 mm 1.57 in39.9 mm
02:30 AM 50.2°F10.1°C 50.2°F10.1°C 100% 7.2 mph NE11.6 kmh NE 10.8 mph17.4 kmh 29.91 in1012.9 mb 0.41 in10.4 mm 0.40 in10.2 mm 1.20 in30.5 mm
02:24 AM 50.2°F10.1°C 50.2°F10.1°C 100% 6.7 mph NE10.8 kmh NE 10.8 mph17.4 kmh 29.94 in1013.9 mb 0.37 in9.4 mm 0.48 in12.2 mm 1.16 in29.5 mm
02:19 AM 50.2°F10.1°C 50.2°F10.1°C 100% 5.4 mph NE8.7 kmh NE 9.8 mph15.8 kmh 29.94 in1013.9 mb 0.33 in8.4 mm 6.60 in167.6 mm 1.11 in28.2 mm
02:16 AM 84.4°F29.1°C 76.6°F24.8°C 77% 2.8 mph SE4.5 kmh SE 4.4 mph7.1 kmh 29.97 in1014.9 mb 0.00 in0.0 mm 0.00 in0.0 mm 1.16 in29.5 mm
02:14 AM 83.8°F28.8°C 76.4°F24.7°C 78% 4.0 mph SSW6.4 kmh SSW 4.4 mph7.1 kmh 29.97 in1014.9 mb 0.00 in0.0 mm 0.00 in0.0 mm 1.16 in29.5 mm
02:09 AM 50.2°F10.1°C 50.2°F10.1°C 100% 2.4 mph SE3.9 kmh SE 8.6 mph13.8 kmh 29.94 in1013.9 mb 0.29 in7.4 mm 0.96 in24.4 mm 1.07 in27.2 mm
02:04 AM 50.2°F10.1°C 50.2°F10.1°C 100% Calm Calm 11.6 mph18.7 kmh 29.94 in1013.9 mb 0.21 in5.3 mm 0.04 in1.0 mm 0.99 in25.1 mm
01:58 AM 50.2°F10.1°C 50.2°F10.1°C 100% 5.4 mph NNE8.7 kmh NNE 11.6 mph18.7 kmh 29.94 in1013.9 mb 0.17 in4.3 mm 0.90 in22.9 mm 0.95 in24.1 mm
01:52 AM 50.2°F10.1°C 50.2°F10.1°C 100% 6.0 mph NE9.7 kmh NE 11.2 mph18.0 kmh 29.94 in1013.9 mb 0.08 in2.0 mm 0.48 in12.2 mm 0.87 in22.1 mm
01:47 AM 50.2°F10.1°C 50.2°F10.1°C 100% 5.7 mph ENE9.2 kmh ENE 14.8 mph23.8 kmh 29.94 in1013.9 mb 0.04 in1.0 mm 0.48 in12.2 mm 0.82 in20.8 mm
01:42 AM 50.2°F10.1°C 50.2°F10.1°C 100% 7.9 mph NE12.7 kmh NE 14.8 mph23.8 kmh 29.94 in1013.9 mb 0.00 in0.0 mm 0.00 in0.0 mm 0.78 in19.8 mm
01:37 AM 50.2°F10.1°C 50.2°F10.1°C 100% 6.4 mph NE10.3 kmh NE 11.2 mph18.0 kmh 29.94 in1013.9 mb 0.46 in11.7 mm 0.40 in10.2 mm 0.74 in18.8 mm
01:31 AM 50.2°F10.1°C 50.2°F10.1°C 100% 5.6 mph NNE9.0 kmh NNE 11.2 mph18.0 kmh 29.94 in1013.9 mb 0.42 in10.7 mm 0.80 in20.3 mm 0.70 in17.8 mm
01:25 AM 50.2°F10.1°C 50.2°F10.1°C 100% 8.2 mph NE13.2 kmh NE 18.8 mph30.3 kmh 29.94 in1013.9 mb 0.34 in8.6 mm 0.60 in15.2 mm 0.62 in15.7 mm
01:20 AM 50.4°F10.2°C 50.4°F10.2°C 100% 11.0 mph NNE17.7 kmh NNE 18.8 mph30.3 kmh 29.94 in1013.9 mb 0.29 in7.4 mm 0.48 in12.2 mm 0.57 in14.5 mm
01:15 AM 50.4°F10.2°C 50.4°F10.2°C 100% 3.2 mph NNE5.1 kmh NNE 12.0 mph19.3 kmh 29.94 in1013.9 mb 0.25 in6.4 mm 0.40 in10.2 mm 0.53 in13.5 mm
01:09 AM 50.4°F10.2°C 50.4°F10.2°C 100% 6.8 mph NE10.9 kmh NE 13.4 mph21.6 kmh 29.91 in1012.9 mb 0.21 in5.3 mm 0.48 in12.2 mm 0.49 in12.4 mm
01:04 AM 50.4°F10.2°C 50.4°F10.2°C 100% 7.0 mph ENE11.3 kmh ENE 16.2 mph26.1 kmh 29.91 in1012.9 mb 0.17 in4.3 mm 0.00 in0.0 mm 0.45 in11.4 mm
12:59 AM 50.4°F10.2°C 50.4°F10.2°C 100% 9.9 mph NE15.9 kmh NE 16.2 mph26.1 kmh 29.91 in1012.9 mb 0.17 in4.3 mm 0.48 in12.2 mm 0.45 in11.4 mm
12:54 AM 50.4°F10.2°C 50.4°F10.2°C 100% 9.0 mph ENE14.5 kmh ENE 15.6 mph25.1 kmh 29.94 in1013.9 mb 0.13 in3.3 mm 1.08 in27.4 mm 0.41 in10.4 mm
12:49 AM 50.4°F10.2°C 50.4°F10.2°C 100% 10.1 mph NNE16.3 kmh NNE 15.6 mph25.1 kmh 29.94 in1013.9 mb 0.04 in1.0 mm 0.48 in12.2 mm 0.33 in8.4 mm
12:44 AM 50.4°F10.2°C 50.4°F10.2°C 100% 7.6 mph NNE12.2 kmh NNE 11.2 mph18.0 kmh 29.94 in1013.9 mb 0.00 in0.0 mm 0.00 in0.0 mm 0.28 in7.1 mm
12:39 AM 50.4°F10.2°C 50.4°F10.2°C 100% 7.1 mph N11.4 kmh N 9.8 mph15.8 kmh 29.94 in1013.9 mb 0.41 in10.4 mm 0.48 in12.2 mm 0.28 in7.1 mm
12:34 AM 50.4°F10.2°C 50.4°F10.2°C 100% 5.8 mph NE9.3 kmh NE 17.0 mph27.4 kmh 29.94 in1013.9 mb 0.37 in9.4 mm 0.48 in12.2 mm 0.24 in6.1 mm
12:29 AM 50.4°F10.2°C 50.4°F10.2°C 100% 5.3 mph NE8.5 kmh NE 17.0 mph27.4 kmh 29.94 in1013.9 mb 0.33 in8.4 mm 0.00 in0.0 mm 0.20 in5.1 mm
12:24 AM 50.4°F10.2°C 50.4°F10.2°C 100% 6.2 mph ENE10.0 kmh ENE 8.6 mph13.8 kmh 30.00 in1015.9 mb 0.33 in8.4 mm 0.96 in24.4 mm 0.20 in5.1 mm
12:19 AM 50.5°F10.3°C 50.5°F10.3°C 100% 4.6 mph ENE7.4 kmh ENE 9.8 mph15.8 kmh 30.00 in1015.9 mb 0.25 in6.4 mm 0.48 in12.2 mm 0.12 in3.0 mm
12:14 AM 50.5°F10.3°C 50.5°F10.3°C 100% 4.6 mph W7.4 kmh W 12.0 mph19.3 kmh 30.00 in1015.9 mb 0.21 in5.3 mm 0.00 in0.0 mm 0.08 in2.0 mm
12:09 AM 50.4°F10.2°C 50.4°F10.2°C 100% 4.5 mph WNW7.2 kmh WNW 14.8 mph23.8 kmh 29.97 in1014.9 mb 0.21 in5.3 mm 0.48 in12.2 mm 0.08 in2.0 mm
12:04 AM 50.4°F10.2°C 50.4°F10.2°C 100% 5.0 mph E8.0 kmh E 17.0 mph27.4 kmh 29.97 in1014.9 mb 0.17 in4.3 mm 2.55 in64.8 mm 0.03 in0.8 mm